Time;durP1;ratioP1;P1;durP2;ratioP2;P2;SDS_P1;SDS_P2;PMS_P1;PMS_P2;Temp;Humidity;BMP_temperature;BMP_pressure;BME280_temperature;BME280_humidity;BME280_pressure;Samples;Min_cycle;Max_cycle;Signal;HPM_P1;HPM_P2
2020/12/10 00:00:21;;;;;;;127.03;43.17;;;;;;;;;;4979603;28;20413;-78
2020/12/10 00:03:09;;;;;;;148.80;46.53;;;;;;;;;;4981549;28;20049;-81
2020/12/10 00:06:04;;;;;;;139.98;45.20;;;;;;;;;;4981570;28;20505;-81
2020/12/10 00:08:45;;;;;;;123.10;43.92;;;;;;;;;;4982111;28;20179;-80
2020/12/10 00:11:45;;;;;;;123.30;44.40;;;;;;;;;;4975265;28;20057;-79
2020/12/10 00:14:34;;;;;;;132.57;44.80;;;;;;;;;;4997288;28;20046;-78
2020/12/10 00:17:18;;;;;;;127.68;45.50;;;;;;;;;;4990081;28;20119;-77
2020/12/10 00:20:20;;;;;;;127.72;44.42;;;;;;;;;;4991960;28;20042;-78
2020/12/10 00:23:15;;;;;;;151.25;47.08;;;;;;;;;;4978476;28;20042;-79
2020/12/10 00:26:03;;;;;;;133.18;44.50;;;;;;;;;;4991482;28;20046;-79
2020/12/10 00:29:09;;;;;;;140.75;45.45;;;;;;;;;;5106796;23;20141;-79
2020/12/10 00:31:54;;;;;;;126.43;44.90;;;;;;;;;;4995912;28;20050;-80
2020/12/10 00:34:31;;;;;;;135.63;45.25;;;;;;;;;;4995721;28;20298;-80
2020/12/10 00:37:59;;;;;;;122.25;43.22;;;;;;;;;;4983654;28;20133;-79
2020/12/10 00:41:11;;;;;;;128.02;44.38;;;;;;;;;;4988270;28;20129;-77
2020/12/10 00:43:58;;;;;;;137.32;45.70;;;;;;;;;;5011392;28;20501;-82
2020/12/10 00:47:00;;;;;;;145.23;45.97;;;;;;;;;;4962158;28;20134;-82
2020/12/10 00:49:55;;;;;;;134.98;44.75;;;;;;;;;;4982466;28;20049;-79
2020/12/10 00:52:54;;;;;;;126.97;44.10;;;;;;;;;;5000130;28;20133;-80
2020/12/10 00:55:48;;;;;;;132.80;45.22;;;;;;;;;;4962451;28;20054;-79
2020/12/10 00:58:48;;;;;;;129.65;43.47;;;;;;;;;;5014729;28;20506;-81
2020/12/10 01:01:38;;;;;;;128.02;43.40;;;;;;;;;;4969391;28;20113;-81
2020/12/10 01:04:45;;;;;;;;;;;;;;;;;;;;;
2020/12/10 01:08:01;;;;;;;129.80;42.33;;;;;;;;;;5014235;28;20038;-81
2020/12/10 01:10:58;;;;;;;133.18;43.65;;;;;;;;;;5012971;28;20042;-81
2020/12/10 01:13:53;;;;;;;127.20;43.40;;;;;;;;;;5000376;28;20042;-81
2020/12/10 01:16:47;;;;;;;120.55;42.13;;;;;;;;;;5014053;28;20077;-82
2020/12/10 01:19:48;;;;;;;119.50;42.75;;;;;;;;;;4986586;28;20049;-80
2020/12/10 01:22:49;;;;;;;124.45;41.17;;;;;;;;;;4983801;28;20044;-81
2020/12/10 01:25:34;;;;;;;121.87;42.00;;;;;;;;;;4996519;28;20057;-79
2020/12/10 01:28:20;;;;;;;122.72;40.53;;;;;;;;;;4999577;28;20304;-80
2020/12/10 01:31:43;;;;;;;;;;;;;;;;;;;;;
2020/12/10 01:34:50;;;;;;;113.25;40.42;;;;;;;;;;4988932;28;20516;-79
2020/12/10 01:38:11;;;;;;;119.00;38.22;;;;;;;;;;5016383;28;20535;-80
2020/12/10 01:41:07;;;;;;;114.47;37.92;;;;;;;;;;4977227;28;20050;-81
2020/12/10 01:44:11;;;;;;;115.60;39.40;;;;;;;;;;5017395;28;20046;-81
2020/12/10 01:46:59;;;;;;;114.68;39.08;;;;;;;;;;4994938;28;20135;-81
2020/12/10 01:49:52;;;;;;;124.28;41.85;;;;;;;;;;5016674;28;20044;-81
2020/12/10 01:52:58;;;;;;;119.68;40.42;;;;;;;;;;4984196;28;20071;-82
2020/12/10 01:56:15;;;;;;;117.95;39.58;;;;;;;;;;4998907;28;20071;-80
2020/12/10 01:59:09;;;;;;;118.68;40.65;;;;;;;;;;5002558;28;20477;-80
2020/12/10 02:01:52;;;;;;;117.97;40.33;;;;;;;;;;4985651;28;20042;-81
2020/12/10 02:04:34;;;;;;;129.27;41.28;;;;;;;;;;5015027;28;20053;-81
2020/12/10 02:07:22;;;;;;;117.38;39.10;;;;;;;;;;5005652;28;20073;-78
2020/12/10 02:10:18;;;;;;;112.38;39.08;;;;;;;;;;4988154;28;20147;-80
2020/12/10 02:12:55;;;;;;;115.00;39.80;;;;;;;;;;4983226;28;20466;-81
2020/12/10 02:15:33;;;;;;;115.80;38.25;;;;;;;;;;4998367;28;20046;-80
2020/12/10 02:18:12;;;;;;;118.13;39.97;;;;;;;;;;4990418;28;20072;-79
2020/12/10 02:20:47;;;;;;;116.18;38.15;;;;;;;;;;5003162;28;20037;-81
2020/12/10 02:23:27;;;;;;;110.75;38.50;;;;;;;;;;5005260;28;20049;-80
2020/12/10 02:26:22;;;;;;;107.38;37.80;;;;;;;;;;4988332;28;20080;-79
2020/12/10 02:29:08;;;;;;;113.35;38.78;;;;;;;;;;5019540;28;20076;-80
2020/12/10 02:31:41;;;;;;;114.15;37.42;;;;;;;;;;5000121;28;20119;-78
2020/12/10 02:34:24;;;;;;;111.18;38.30;;;;;;;;;;4980131;28;20046;-80
2020/12/10 02:37:11;;;;;;;122.43;38.75;;;;;;;;;;4985110;28;20046;-80
2020/12/10 02:39:54;;;;;;;;;;;;;;;;;;4999793;28;20080;-79
2020/12/10 02:42:37;;;;;;;122.80;38.22;;;;;;;;;;5015246;28;19928;-81
2020/12/10 02:45:24;;;;;;;138.30;42.42;;;;;;;;;;4967224;28;20133;-79
2020/12/10 02:48:04;;;;;;;123.47;41.03;;;;;;;;;;4998856;28;20042;-80
2020/12/10 02:50:51;;;;;;;128.52;40.75;;;;;;;;;;4972215;28;20068;-80
2020/12/10 02:53:37;;;;;;;114.68;38.22;;;;;;;;;;5019089;28;20120;-80
2020/12/10 02:56:16;;;;;;;120.57;39.30;;;;;;;;;;5001660;28;20104;-80
2020/12/10 02:59:12;;;;;;;113.47;38.10;;;;;;;;;;5017152;28;20045;-79
2020/12/10 03:02:00;;;;;;;118.63;38.78;;;;;;;;;;5001891;28;20570;-79
2020/12/10 03:04:50;;;;;;;114.60;37.97;;;;;;;;;;4985211;28;20136;-79
2020/12/10 03:07:29;;;;;;;107.97;36.97;;;;;;;;;;4969795;28;20131;-78
2020/12/10 03:10:07;;;;;;;116.22;38.65;;;;;;;;;;4983844;28;20519;-78
2020/12/10 03:12:55;;;;;;;112.85;36.97;;;;;;;;;;4971782;28;20476;-79
2020/12/10 03:15:32;;;;;;;123.38;39.47;;;;;;;;;;4968309;28;20046;-79
2020/12/10 03:18:25;;;;;;;117.35;38.03;;;;;;;;;;4984343;28;20045;-80
2020/12/10 03:21:02;;;;;;;116.28;39.10;;;;;;;;;;4987424;28;20045;-81
2020/12/10 03:23:46;;;;;;;113.38;37.97;;;;;;;;;;5003651;28;20628;-81
2020/12/10 03:26:22;;;;;;;117.95;38.42;;;;;;;;;;4971772;28;20140;-81
2020/12/10 03:28:55;;;;;;;122.10;39.22;;;;;;;;;;5017693;28;20333;-81
2020/12/10 03:31:40;;;;;;;112.15;37.17;;;;;;;;;;4988939;28;20050;-82
2020/12/10 03:34:19;;;;;;;122.72;38.33;;;;;;;;;;4985517;28;20129;-81
2020/12/10 03:37:02;;;;;;;113.50;38.30;;;;;;;;;;4998439;28;20038;-80
2020/12/10 03:39:45;;;;;;;114.68;39.88;;;;;;;;;;5016002;28;20042;-79
2020/12/10 03:42:21;;;;;;;111.80;37.33;;;;;;;;;;4999179;28;20045;-81
2020/12/10 03:44:54;;;;;;;115.57;37.92;;;;;;;;;;4999138;28;20050;-79
2020/12/10 03:47:35;;;;;;;107.13;37.00;;;;;;;;;;4998535;28;20142;-81
2020/12/10 03:50:10;;;;;;;115.82;37.10;;;;;;;;;;4968646;28;20478;-81
2020/12/10 03:52:49;;;;;;;127.32;38.95;;;;;;;;;;4998032;28;20070;-80
2020/12/10 03:55:24;;;;;;;118.57;39.50;;;;;;;;;;4983992;28;20214;-80
2020/12/10 03:58:03;;;;;;;109.05;36.85;;;;;;;;;;4982979;28;20050;-80
2020/12/10 04:00:43;;;;;;;108.07;36.92;;;;;;;;;;4984543;28;20096;-80
2020/12/10 04:03:21;;;;;;;110.40;36.45;;;;;;;;;;4985148;28;20045;-81
2020/12/10 04:06:07;;;;;;;105.18;36.03;;;;;;;;;;4984585;28;20099;-81
2020/12/10 04:08:41;;;;;;;103.40;35.08;;;;;;;;;;4988347;28;20034;-81
2020/12/10 04:11:23;;;;;;;109.15;37.28;;;;;;;;;;5019157;28;20030;-80
2020/12/10 04:13:56;;;;;;;112.05;37.75;;;;;;;;;;5017794;28;20116;-80
2020/12/10 04:16:32;;;;;;;108.53;37.55;;;;;;;;;;4983974;28;20038;-80
2020/12/10 04:19:06;;;;;;;118.43;37.65;;;;;;;;;;5002559;23;20492;-80
2020/12/10 04:21:37;;;;;;;119.13;37.70;;;;;;;;;;5013644;28;20096;-80
2020/12/10 04:24:07;;;;;;;106.55;36.92;;;;;;;;;;4996417;28;20050;-80
2020/12/10 04:26:39;;;;;;;118.18;38.55;;;;;;;;;;5013710;28;20057;-80
2020/12/10 04:29:17;;;;;;;110.65;36.17;;;;;;;;;;5016626;28;20048;-81
2020/12/10 04:31:50;;;;;;;114.85;38.55;;;;;;;;;;5041334;28;20064;-80
2020/12/10 04:34:30;;;;;;;106.47;36.13;;;;;;;;;;5007979;28;20049;-80
2020/12/10 04:37:10;;;;;;;110.10;36.95;;;;;;;;;;5022631;28;20077;-79
2020/12/10 04:39:50;;;;;;;107.43;37.30;;;;;;;;;;5037240;28;20052;-80
2020/12/10 04:42:22;;;;;;;100.35;34.90;;;;;;;;;;5029922;28;20056;-78
2020/12/10 04:44:58;;;;;;;92.05;34.42;;;;;;;;;;5027084;28;20092;-81
2020/12/10 04:47:40;;;;;;;104.47;36.67;;;;;;;;;;5031230;28;20264;-82
2020/12/10 04:50:20;;;;;;;102.03;34.60;;;;;;;;;;5037587;28;20619;-80
2020/12/10 04:52:54;;;;;;;103.18;35.20;;;;;;;;;;5027012;28;20041;-80
2020/12/10 04:55:33;;;;;;;99.03;34.53;;;;;;;;;;5035667;28;20451;-83
2020/12/10 04:58:09;;;;;;;75.20;27.05;;;;;;;;;;5034558;28;20048;-79
2020/12/10 05:00:39;;;;;;;98.07;34.88;;;;;;;;;;5034064;28;20096;-82
2020/12/10 05:03:06;;;;;;;103.00;35.60;;;;;;;;;;5016533;28;20042;-83
2020/12/10 05:05:33;;;;;;;109.90;37.13;;;;;;;;;;5016297;28;20046;-81
2020/12/10 05:08:08;;;;;;;107.30;35.45;;;;;;;;;;5003293;28;20042;-80
2020/12/10 05:10:44;;;;;;;105.45;35.95;;;;;;;;;;5008146;28;20049;-81
2020/12/10 05:13:11;;;;;;;100.53;35.33;;;;;;;;;;5004489;28;20045;-81
2020/12/10 05:15:40;;;;;;;104.15;34.35;;;;;;;;;;5004304;28;20088;-79
2020/12/10 05:18:07;;;;;;;92.72;32.63;;;;;;;;;;5013643;28;20053;-80
2020/12/10 05:20:38;;;;;;;94.88;33.03;;;;;;;;;;5018816;28;20052;-80
2020/12/10 05:23:04;;;;;;;100.93;34.95;;;;;;;;;;5020812;28;20096;-81
2020/12/10 05:25:43;;;;;;;101.45;35.75;;;;;;;;;;4986842;28;20095;-81
2020/12/10 05:28:10;;;;;;;93.22;33.72;;;;;;;;;;5045044;23;21964;-83
2020/12/10 05:30:36;;;;;;;86.90;31.88;;;;;;;;;;4985613;28;20069;-81
2020/12/10 05:33:13;;;;;;;100.38;33.92;;;;;;;;;;5001064;28;20098;-81
2020/12/10 05:35:43;;;;;;;98.72;33.53;;;;;;;;;;4980592;28;20061;-84
2020/12/10 05:38:11;;;;;;;92.18;33.20;;;;;;;;;;5001451;28;20505;-82
2020/12/10 05:40:40;;;;;;;96.22;33.97;;;;;;;;;;5019254;28;20645;-83
2020/12/10 05:43:06;;;;;;;97.30;35.97;;;;;;;;;;4984139;28;20148;-84
2020/12/10 05:45:39;;;;;;;102.10;34.97;;;;;;;;;;4983526;28;20046;-84
2020/12/10 05:48:05;;;;;;;95.07;32.67;;;;;;;;;;4999291;28;20133;-84
2020/12/10 05:50:32;;;;;;;93.90;32.53;;;;;;;;;;5024878;28;20037;-83
2020/12/10 05:52:59;;;;;;;98.65;34.88;;;;;;;;;;5015584;28;20045;-83
2020/12/10 05:55:27;;;;;;;100.60;35.20;;;;;;;;;;5017256;28;20477;-86
2020/12/10 05:57:58;;;;;;;96.25;35.00;;;;;;;;;;4980008;28;20042;-84
2020/12/10 06:00:24;;;;;;;103.30;35.83;;;;;;;;;;4981074;28;20145;-85
2020/12/10 06:02:53;;;;;;;101.28;35.58;;;;;;;;;;4964496;28;20138;-84
2020/12/10 06:05:21;;;;;;;98.53;35.03;;;;;;;;;;4964334;28;20073;-85
2020/12/10 06:07:57;;;;;;;98.75;34.95;;;;;;;;;;4979086;28;20085;-86
2020/12/10 06:10:23;;;;;;;94.90;34.00;;;;;;;;;;4981568;28;20046;-85
2020/12/10 06:12:50;;;;;;;100.63;34.50;;;;;;;;;;4981513;28;20073;-85
2020/12/10 06:15:21;;;;;;;98.15;33.70;;;;;;;;;;4981190;28;20046;-85
2020/12/10 06:18:02;;;;;;;92.00;34.13;;;;;;;;;;4981746;28;20050;-85
2020/12/10 06:20:42;;;;;;;88.43;33.45;;;;;;;;;;4996980;28;20042;-85
2020/12/10 06:23:27;;;;;;;92.95;34.22;;;;;;;;;;4970117;28;20051;-85
2020/12/10 06:25:55;;;;;;;99.57;35.72;;;;;;;;;;4981989;28;20117;-83
2020/12/10 06:28:22;;;;;;;102.85;35.78;;;;;;;;;;4972126;28;20049;-84
2020/12/10 06:31:04;;;;;;;106.93;35.42;;;;;;;;;;4981946;28;20038;-84
2020/12/10 06:33:46;;;;;;;101.28;36.15;;;;;;;;;;4980252;28;20638;-84
2020/12/10 06:36:21;;;;;;;109.60;36.20;;;;;;;;;;4980451;28;20665;-84
2020/12/10 06:38:51;;;;;;;106.82;36.55;;;;;;;;;;4970647;28;20065;-84
2020/12/10 06:41:17;;;;;;;108.25;36.20;;;;;;;;;;4966145;28;20046;-84
2020/12/10 06:43:43;;;;;;;112.65;37.78;;;;;;;;;;4981749;28;20042;-83
2020/12/10 06:46:09;;;;;;;114.43;38.28;;;;;;;;;;4981041;28;20054;-84
2020/12/10 06:48:43;;;;;;;115.07;38.53;;;;;;;;;;4980702;28;20042;-84
2020/12/10 06:51:14;;;;;;;110.25;35.35;;;;;;;;;;4998372;28;20045;-84
2020/12/10 06:54:02;;;;;;;114.50;37.75;;;;;;;;;;4997124;28;20395;-83
2020/12/10 06:56:28;;;;;;;108.32;35.78;;;;;;;;;;4963752;28;20049;-84
2020/12/10 06:58:58;;;;;;;96.05;35.20;;;;;;;;;;4997254;28;20134;-83
2020/12/10 07:01:35;;;;;;;105.75;36.38;;;;;;;;;;4962723;28;20053;-85
2020/12/10 07:04:37;;;;;;;100.45;34.75;;;;;;;;;;4978777;28;20050;-84
2020/12/10 07:07:15;;;;;;;107.10;35.53;;;;;;;;;;4978845;28;20549;-83
2020/12/10 07:09:45;;;;;;;108.28;35.40;;;;;;;;;;4979941;28;20046;-83
2020/12/10 07:12:25;;;;;;;105.93;36.33;;;;;;;;;;4984891;28;20533;-84
2020/12/10 07:15:08;;;;;;;106.53;35.15;;;;;;;;;;4999268;28;20038;-84
2020/12/10 07:17:34;;;;;;;109.43;36.63;;;;;;;;;;4964115;28;20069;-84
2020/12/10 07:20:03;;;;;;;111.72;36.08;;;;;;;;;;4996594;28;20042;-84
2020/12/10 07:22:29;;;;;;;103.40;35.28;;;;;;;;;;4995557;28;20056;-84
2020/12/10 07:24:56;;;;;;;102.43;35.88;;;;;;;;;;4978121;28;20038;-85
2020/12/10 07:27:25;;;;;;;106.68;37.22;;;;;;;;;;4994761;28;20383;-83
2020/12/10 07:29:52;;;;;;;112.68;36.58;;;;;;;;;;4995528;28;20047;-84
2020/12/10 07:32:19;;;;;;;104.53;36.28;;;;;;;;;;4976901;28;20061;-84
2020/12/10 07:34:45;;;;;;;104.63;34.45;;;;;;;;;;4945953;28;20058;-84
2020/12/10 07:37:13;;;;;;;104.40;35.22;;;;;;;;;;4977197;28;20411;-83
2020/12/10 07:39:40;;;;;;;91.95;33.97;;;;;;;;;;4978271;28;20098;-84
2020/12/10 07:42:06;;;;;;;103.00;34.42;;;;;;;;;;4979115;28;20046;-84
2020/12/10 07:44:33;;;;;;;101.15;34.78;;;;;;;;;;4979120;28;20050;-84
2020/12/10 07:47:01;;;;;;;102.65;36.53;;;;;;;;;;4977967;28;20050;-83
2020/12/10 07:49:31;;;;;;;111.85;36.72;;;;;;;;;;4994417;28;20061;-83
2020/12/10 07:52:06;;;;;;;116.80;37.58;;;;;;;;;;4961107;28;20673;-84
2020/12/10 07:54:46;;;;;;;123.20;37.90;;;;;;;;;;4994114;28;20047;-83
2020/12/10 07:57:32;;;;;;;128.50;39.08;;;;;;;;;;4994110;28;20057;-84
2020/12/10 08:00:05;;;;;;;126.63;39.83;;;;;;;;;;4995072;28;20097;-84
2020/12/10 08:02:38;;;;;;;126.00;38.92;;;;;;;;;;4960962;28;20054;-84
2020/12/10 08:05:18;;;;;;;117.03;37.47;;;;;;;;;;4982198;28;20058;-84
2020/12/10 08:07:49;;;;;;;127.00;40.42;;;;;;;;;;4987956;28;20054;-84
2020/12/10 08:10:34;;;;;;;120.35;37.88;;;;;;;;;;4984982;28;20633;-84
2020/12/10 08:13:14;;;;;;;116.05;37.40;;;;;;;;;;4974870;28;20050;-84
2020/12/10 08:15:42;;;;;;;117.35;39.15;;;;;;;;;;4987966;28;20046;-84
2020/12/10 08:18:09;;;;;;;117.88;39.22;;;;;;;;;;4987146;28;20134;-83
2020/12/10 08:20:40;;;;;;;127.18;38.90;;;;;;;;;;4988947;28;20074;-84
2020/12/10 08:23:08;;;;;;;114.35;39.05;;;;;;;;;;4995697;28;20049;-82
2020/12/10 08:25:34;;;;;;;125.78;38.40;;;;;;;;;;4959483;28;20050;-83
2020/12/10 08:28:03;;;;;;;121.20;38.05;;;;;;;;;;4993082;28;20149;-82
2020/12/10 08:30:29;;;;;;;121.45;38.38;;;;;;;;;;4976319;28;20050;-83
2020/12/10 08:32:59;;;;;;;112.05;36.33;;;;;;;;;;4976146;28;20062;-83
2020/12/10 08:35:25;;;;;;;117.20;39.25;;;;;;;;;;4961751;28;20074;-84
2020/12/10 08:37:52;;;;;;;126.88;40.72;;;;;;;;;;4977162;28;20390;-84
2020/12/10 08:40:25;;;;;;;128.43;40.22;;;;;;;;;;4978060;28;20054;-84
2020/12/10 08:42:52;;;;;;;126.53;40.25;;;;;;;;;;4995460;28;20147;-84
2020/12/10 08:45:28;;;;;;;126.75;39.42;;;;;;;;;;4964108;28;20543;-84
2020/12/10 08:47:59;;;;;;;129.65;39.80;;;;;;;;;;4997656;28;20050;-84
2020/12/10 08:50:27;;;;;;;132.57;40.05;;;;;;;;;;4986567;28;20042;-83
2020/12/10 08:53:00;;;;;;;125.18;40.60;;;;;;;;;;4997201;28;20470;-83
2020/12/10 08:55:26;;;;;;;128.95;40.45;;;;;;;;;;5000152;28;20046;-83
2020/12/10 08:57:53;;;;;;;120.53;38.63;;;;;;;;;;4968072;28;20034;-85
2020/12/10 09:00:19;;;;;;;128.82;38.90;;;;;;;;;;5007931;28;20069;-85
2020/12/10 09:02:45;;;;;;;129.50;40.38;;;;;;;;;;4981031;28;20057;-83
2020/12/10 09:05:12;;;;;;;127.55;40.63;;;;;;;;;;4981564;28;20048;-84
2020/12/10 09:07:38;;;;;;;121.15;40.33;;;;;;;;;;4981215;28;20077;-84
2020/12/10 09:10:06;;;;;;;124.00;39.28;;;;;;;;;;4981444;28;20042;-85
2020/12/10 09:12:33;;;;;;;125.68;38.97;;;;;;;;;;4966536;28;20100;-84
2020/12/10 09:14:59;;;;;;;129.55;39.63;;;;;;;;;;4999105;28;20077;-84
2020/12/10 09:17:28;;;;;;;119.47;37.78;;;;;;;;;;4981965;28;20621;-84
2020/12/10 09:19:55;;;;;;;113.82;37.63;;;;;;;;;;4974087;28;20053;-84
2020/12/10 09:22:21;;;;;;;116.82;37.60;;;;;;;;;;4984582;28;20042;-84
2020/12/10 09:24:47;;;;;;;120.63;37.70;;;;;;;;;;4999636;28;20054;-84
2020/12/10 09:27:18;;;;;;;122.40;38.22;;;;;;;;;;4966029;28;20101;-85
2020/12/10 09:29:45;;;;;;;119.55;37.72;;;;;;;;;;4981245;28;20097;-83
2020/12/10 09:32:11;;;;;;;125.43;38.78;;;;;;;;;;4966110;28;20106;-84
2020/12/10 09:34:37;;;;;;;127.93;38.78;;;;;;;;;;4964832;28;20062;-84
2020/12/10 09:37:03;;;;;;;114.90;37.47;;;;;;;;;;4980997;28;20080;-84
2020/12/10 09:39:32;;;;;;;123.30;38.35;;;;;;;;;;4980932;28;20042;-84
2020/12/10 09:41:59;;;;;;;119.57;36.75;;;;;;;;;;4980475;28;20142;-84
2020/12/10 09:44:25;;;;;;;115.63;37.67;;;;;;;;;;4980011;28;20038;-85
2020/12/10 09:46:51;;;;;;;107.65;34.92;;;;;;;;;;4979843;28;20039;-84
2020/12/10 09:49:17;;;;;;;122.35;38.08;;;;;;;;;;4995860;28;20061;-84
2020/12/10 09:51:51;;;;;;;127.07;38.45;;;;;;;;;;4978124;28;20057;-84
2020/12/10 09:59:31;;;;;;;114.10;36.92;;;;;;;;;;4997230;28;20042;-84
2020/12/10 10:01:57;;;;;;;115.95;35.95;;;;;;;;;;4964066;28;20528;-84
2020/12/10 10:04:24;;;;;;;112.07;37.03;;;;;;;;;;4981288;28;20077;-84
2020/12/10 10:06:50;;;;;;;119.10;38.67;;;;;;;;;;4995655;28;20039;-84
2020/12/10 10:09:16;;;;;;;106.93;36.47;;;;;;;;;;4978659;28;20049;-84
2020/12/10 10:11:48;;;;;;;114.10;37.85;;;;;;;;;;4995953;28;20121;-84
2020/12/10 10:14:14;;;;;;;122.65;38.55;;;;;;;;;;4995438;28;20688;-84
2020/12/10 10:16:40;;;;;;;126.25;40.25;;;;;;;;;;4961377;28;20042;-84
2020/12/10 10:19:07;;;;;;;113.68;37.92;;;;;;;;;;4963071;28;20097;-83
2020/12/10 10:21:33;;;;;;;124.35;38.95;;;;;;;;;;4962519;28;20072;-84
2020/12/10 10:23:59;;;;;;;122.53;38.72;;;;;;;;;;4996186;28;20238;-83
2020/12/10 10:26:26;;;;;;;118.85;38.95;;;;;;;;;;4978973;28;20049;-84
2020/12/10 10:28:54;;;;;;;127.43;38.42;;;;;;;;;;4995587;28;20042;-83
2020/12/10 10:31:20;;;;;;;113.43;37.72;;;;;;;;;;4961866;28;20046;-83
2020/12/10 10:33:46;;;;;;;112.88;38.15;;;;;;;;;;4976398;28;20093;-84
2020/12/10 10:36:13;;;;;;;110.90;36.88;;;;;;;;;;4976619;28;20042;-83
2020/12/10 10:38:40;;;;;;;109.80;35.63;;;;;;;;;;5010942;28;20038;-83
2020/12/10 10:41:06;;;;;;;117.88;38.10;;;;;;;;;;4980242;28;20042;-84
2020/12/10 10:43:35;;;;;;;116.05;39.38;;;;;;;;;;4995061;28;20441;-83
2020/12/10 10:46:02;;;;;;;114.82;38.10;;;;;;;;;;4995491;28;20498;-83
2020/12/10 10:48:28;;;;;;;124.63;37.88;;;;;;;;;;4962844;28;20046;-84
2020/12/10 10:50:54;;;;;;;117.85;37.75;;;;;;;;;;4978676;28;20046;-83
2020/12/10 10:53:20;;;;;;;118.28;36.25;;;;;;;;;;4978236;28;20050;-83
2020/12/10 10:55:50;;;;;;;127.00;37.83;;;;;;;;;;4962531;28;20042;-84
2020/12/10 10:58:16;;;;;;;115.30;37.58;;;;;;;;;;4977993;28;20053;-84
2020/12/10 11:00:46;;;;;;;114.18;37.58;;;;;;;;;;4978526;28;20050;-84
2020/12/10 11:03:13;;;;;;;114.18;37.08;;;;;;;;;;4979827;28;20066;-84
2020/12/10 11:05:39;;;;;;;119.57;37.53;;;;;;;;;;4991196;28;20045;-84
2020/12/10 11:08:05;;;;;;;109.82;36.38;;;;;;;;;;4979988;28;20486;-84
2020/12/10 11:10:34;;;;;;;111.07;37.70;;;;;;;;;;4977346;28;20053;-82
2020/12/10 11:13:00;;;;;;;121.05;39.42;;;;;;;;;;4995235;28;20074;-84
2020/12/10 11:15:26;;;;;;;120.22;38.42;;;;;;;;;;4961854;28;20069;-84
2020/12/10 11:17:53;;;;;;;117.90;38.35;;;;;;;;;;4982048;28;20101;-83
2020/12/10 11:20:19;;;;;;;115.18;37.80;;;;;;;;;;4979411;28;20073;-86
2020/12/10 11:22:45;;;;;;;116.00;35.83;;;;;;;;;;4963927;28;20229;-86
2020/12/10 11:25:11;;;;;;;115.85;37.15;;;;;;;;;;4979334;28;20072;-84
2020/12/10 11:27:37;;;;;;;112.53;35.55;;;;;;;;;;4962372;28;20144;-85
2020/12/10 11:30:04;;;;;;;116.90;36.13;;;;;;;;;;4978017;28;20038;-84
2020/12/10 11:32:31;;;;;;;125.95;38.90;;;;;;;;;;4995545;28;20043;-84
2020/12/10 11:34:57;;;;;;;119.30;38.17;;;;;;;;;;4978444;28;20133;-85
2020/12/10 11:37:23;;;;;;;127.82;38.35;;;;;;;;;;4964929;28;20038;-82
2020/12/10 11:39:54;;;;;;;114.88;38.30;;;;;;;;;;5005678;28;20077;-83
2020/12/10 11:42:21;;;;;;;120.90;40.33;;;;;;;;;;4994906;28;20066;-82
2020/12/10 11:44:50;;;;;;;119.15;38.00;;;;;;;;;;4978066;28;20553;-82
2020/12/10 11:47:16;;;;;;;123.97;39.15;;;;;;;;;;4977757;28;20046;-84
2020/12/10 11:49:43;;;;;;;131.10;39.78;;;;;;;;;;4978246;28;20039;-86
2020/12/10 11:52:09;;;;;;;128.35;39.65;;;;;;;;;;4979577;28;20136;-84
2020/12/10 11:54:35;;;;;;;125.85;39.10;;;;;;;;;;4979138;28;20054;-84
2020/12/10 11:57:01;;;;;;;125.43;39.47;;;;;;;;;;4996300;28;20113;-83
2020/12/10 11:59:28;;;;;;;128.38;40.88;;;;;;;;;;4978092;28;20145;-84
2020/12/10 12:01:54;;;;;;;120.32;40.30;;;;;;;;;;4961133;28;20039;-85
2020/12/10 12:04:21;;;;;;;118.45;39.17;;;;;;;;;;4978699;28;20038;-84
2020/12/10 12:06:48;;;;;;;110.30;37.85;;;;;;;;;;4992676;28;20054;-84
2020/12/10 12:09:14;;;;;;;126.35;39.00;;;;;;;;;;4978331;28;20434;-84
2020/12/10 12:11:41;;;;;;;124.40;40.00;;;;;;;;;;4994514;28;20042;-86
2020/12/10 12:14:07;;;;;;;130.40;40.35;;;;;;;;;;4977522;28;20057;-84
2020/12/10 12:16:33;;;;;;;121.72;38.25;;;;;;;;;;4961499;28;20494;-86
2020/12/10 12:18:59;;;;;;;119.80;39.50;;;;;;;;;;4977342;28;20045;-85
2020/12/10 12:21:27;;;;;;;122.45;39.22;;;;;;;;;;4994379;28;20038;-84
2020/12/10 12:23:53;;;;;;;117.10;38.88;;;;;;;;;;4999478;28;20080;-84
2020/12/10 12:26:27;;;;;;;113.95;39.63;;;;;;;;;;4994158;28;20102;-84
2020/12/10 12:28:54;;;;;;;125.20;40.58;;;;;;;;;;4994268;28;20042;-84
2020/12/10 12:31:26;;;;;;;124.57;40.33;;;;;;;;;;5012111;28;20034;-84
2020/12/10 12:34:02;;;;;;;117.57;39.03;;;;;;;;;;4996603;28;20098;-83
2020/12/10 12:36:28;;;;;;;126.03;40.00;;;;;;;;;;4995456;28;20042;-84
2020/12/10 12:38:55;;;;;;;111.80;37.47;;;;;;;;;;4994089;28;20057;-83
2020/12/10 12:41:28;;;;;;;119.30;38.25;;;;;;;;;;4994133;28;20030;-83
2020/12/10 12:43:58;;;;;;;128.40;38.65;;;;;;;;;;4994122;28;20110;-84
2020/12/10 12:46:24;;;;;;;115.35;39.33;;;;;;;;;;5010909;28;20046;-83
2020/12/10 12:48:51;;;;;;;119.32;38.78;;;;;;;;;;4980172;28;20074;-85
2020/12/10 12:51:18;;;;;;;128.82;40.60;;;;;;;;;;4995699;28;20039;-84
2020/12/10 12:53:44;;;;;;;118.32;40.00;;;;;;;;;;5011987;28;20048;-84
2020/12/10 12:56:10;;;;;;;119.05;38.88;;;;;;;;;;5011725;28;20091;-84
2020/12/10 12:58:36;;;;;;;126.28;39.35;;;;;;;;;;5012195;28;20071;-84
2020/12/10 13:01:03;;;;;;;128.80;41.00;;;;;;;;;;5012746;28;20026;-82
2020/12/10 13:03:29;;;;;;;123.47;39.50;;;;;;;;;;4979462;28;20418;-83
2020/12/10 13:05:55;;;;;;;114.72;37.67;;;;;;;;;;4993911;28;20043;-83
2020/12/10 13:08:22;;;;;;;118.30;38.97;;;;;;;;;;5011308;28;20039;-84
2020/12/10 13:10:49;;;;;;;122.28;39.60;;;;;;;;;;5011285;28;20113;-84
2020/12/10 13:13:15;;;;;;;117.78;39.90;;;;;;;;;;5011696;28;20030;-83
2020/12/10 13:15:42;;;;;;;122.65;39.33;;;;;;;;;;5006836;28;20038;-83
2020/12/10 13:18:10;;;;;;;112.22;38.88;;;;;;;;;;4989456;28;20102;-83
2020/12/10 13:20:39;;;;;;;119.55;38.40;;;;;;;;;;4971027;28;20049;-83
2020/12/10 13:23:05;;;;;;;117.80;39.22;;;;;;;;;;4999074;28;20211;-84
2020/12/10 13:25:33;;;;;;;118.70;38.80;;;;;;;;;;4998580;28;20713;-82
2020/12/10 13:28:00;;;;;;;119.03;38.90;;;;;;;;;;4981118;28;20073;-84
2020/12/10 13:30:28;;;;;;;117.78;40.05;;;;;;;;;;4982918;28;20049;-82
2020/12/10 13:32:54;;;;;;;117.05;39.53;;;;;;;;;;4985039;28;20031;-84
2020/12/10 13:35:21;;;;;;;117.60;38.60;;;;;;;;;;5001696;28;20098;-84
2020/12/10 13:37:48;;;;;;;116.18;38.75;;;;;;;;;;4984503;28;20046;-83
2020/12/10 13:40:14;;;;;;;120.40;40.75;;;;;;;;;;5001616;28;20042;-82
2020/12/10 13:42:41;;;;;;;136.55;41.95;;;;;;;;;;4983729;28;20039;-84
2020/12/10 13:45:07;;;;;;;134.50;41.50;;;;;;;;;;4985203;28;20161;-82
2020/12/10 13:47:35;;;;;;;143.35;42.70;;;;;;;;;;4987307;28;20058;-83
2020/12/10 13:50:02;;;;;;;146.80;41.92;;;;;;;;;;5016740;28;20049;-82
2020/12/10 13:52:28;;;;;;;152.65;44.55;;;;;;;;;;5022018;28;20084;-82
2020/12/10 13:54:54;;;;;;;146.00;43.60;;;;;;;;;;5001033;28;20046;-82
2020/12/10 13:57:21;;;;;;;173.80;46.08;;;;;;;;;;5017279;28;20644;-81
2020/12/10 13:59:47;;;;;;;167.32;45.28;;;;;;;;;;4999520;28;20072;-82
2020/12/10 14:02:16;;;;;;;156.52;44.83;;;;;;;;;;5016829;28;20056;-85
2020/12/10 14:04:42;;;;;;;147.85;43.60;;;;;;;;;;5000014;28;20108;-82
2020/12/10 14:07:08;;;;;;;160.73;46.83;;;;;;;;;;4966396;28;20077;-80
2020/12/10 14:09:35;;;;;;;165.32;45.90;;;;;;;;;;4998678;28;20041;-82
2020/12/10 14:12:01;;;;;;;178.27;47.95;;;;;;;;;;4993481;28;20052;-81
2020/12/10 14:14:28;;;;;;;188.00;48.95;;;;;;;;;;4999392;28;20449;-82
2020/12/10 14:16:55;;;;;;;189.20;49.05;;;;;;;;;;4995687;28;20046;-82
2020/12/10 14:19:22;;;;;;;185.80;50.00;;;;;;;;;;4996204;28;20038;-81
2020/12/10 14:21:51;;;;;;;178.45;47.70;;;;;;;;;;5015761;28;20049;-82
2020/12/10 14:24:17;;;;;;;174.75;46.97;;;;;;;;;;4997596;28;20101;-82
2020/12/10 14:26:48;;;;;;;190.52;48.35;;;;;;;;;;5013766;28;20045;-83
2020/12/10 14:29:13;;;;;;;186.02;49.15;;;;;;;;;;5015749;28;20049;-82
2020/12/10 14:31:39;;;;;;;208.00;49.53;;;;;;;;;;4997739;28;20050;-82
2020/12/10 14:34:06;;;;;;;201.88;48.85;;;;;;;;;;4997808;28;20046;-82
2020/12/10 14:36:32;;;;;;;191.68;49.85;;;;;;;;;;5016249;28;20096;-81
2020/12/10 14:38:58;;;;;;;176.82;47.72;;;;;;;;;;5015044;28;20046;-81
2020/12/10 14:41:24;;;;;;;172.20;46.35;;;;;;;;;;5015569;28;20064;-81
2020/12/10 14:43:51;;;;;;;190.15;49.28;;;;;;;;;;5014151;28;20041;-83
2020/12/10 14:46:17;;;;;;;181.63;47.25;;;;;;;;;;4997573;28;20053;-82
2020/12/10 14:48:43;;;;;;;177.88;46.95;;;;;;;;;;5015454;28;20046;-81
2020/12/10 14:51:13;;;;;;;198.07;47.25;;;;;;;;;;5014765;28;20066;-82
2020/12/10 14:53:40;;;;;;;180.73;48.08;;;;;;;;;;4997670;28;20046;-83